Dole Caribbean — C6CA4 — position and weather

sailwx.info

Track history (hours):
 
Tides and Currents Weather Stations Pressure Air Temp Water Temp Dewpoint Dewpoint Depression Visibility Wind Speed Wind Dir Waves Ship Positions

Dole Caribbean

Last reported at 2017-Nov-15 17:19 UTC. Time now 2017-Nov-24 07:13 UTC.
Position N 28°33' W 115°57'.
Warning: this ship's position is 8 days out of date.

Length 190 m; draft 8.2 m.

Type: Ship. MMSI: 311000416.

Date/timePositionNaut miles runAvg speedWind from/ knotsBaromVisibWave heightAir tempDewpointWater temp
2017-Nov-15 17:19N 28°33' W 115°57'618.4
2017-Nov-15 17:00N 28°39' W 115°59'918.5
2017-Nov-15 16:29N 28°48' W 116°02'918.4
2017-Nov-15 16:00N 28°56' W 116°05'918.4
2017-Nov-15 15:31N 29°05' W 116°08'918.2
2017-Nov-15 15:01N 29°14' W 116°12'1417.9
2017-Nov-15 14:13N 29°27' W 116°17'518.0
2017-Nov-15 13:55N 29°32' W 116°19'818.1
2017-Nov-15 13:29N 29°39' W 116°22'3018.2
2017-Nov-15 11:51N 30°08' W 116°33'818.4
2017-Nov-15 11:27N 30°15' W 116°36'818.6
2017-Nov-15 11:00N 30°22' W 116°39'918.8
2017-Nov-15 10:30N 30°32' W 116°42'918.7
2017-Nov-15 10:01N 30°40' W 116°45'1018.6
2017-Nov-15 09:30N 30°49' W 116°48'2918.4
2017-Nov-15 07:57N 31°16' W 116°60'818.5
2017-Nov-15 07:31N 31°24' W 117°03'1019.0
2017-Nov-15 07:00N 31°33' W 117°06'918.8
2017-Nov-15 06:30N 31°42' W 117°09'1019.1
2017-Nov-15 06:00N 31°51' W 117°12'918.8
2017-Nov-15 05:30N 32°00' W 117°16'918.5
2017-Nov-15 05:00N 32°09' W 117°20'1218.7
2017-Nov-15 04:23N 32°20' W 117°24'511.9
2017-Nov-15 04:00N 32°24' W 117°23'1311.8
2017-Nov-15 02:53N 32°36' W 117°15'411.3
2017-Nov-15 02:30N 32°40' W 117°14'4 6.8
2017-Nov-15 01:57N 32°43' W 117°11'1 2.2
2017-Nov-15 01:24N 32°42' W 117°09'0 0.0
2017-Nov-15 01:00N 32°42' W 117°09'0 0.0
2017-Nov-14 22:42N 32°42' W 117°09'0 0.0
2017-Nov-14 21:45N 32°42' W 117°09'0 0.0
2017-Nov-14 19:24N 32°42' W 117°09'0 0.0
2017-Nov-14 18:33N 32°42' W 117°09'0 0.0
2017-Nov-14 18:27N 32°42' W 117°09'0 0.0
2017-Nov-14 17:54N 32°42' W 117°09'0 0.0
2017-Nov-14 14:03N 32°42' W 117°09'0 0.0
2017-Nov-14 13:45N 32°42' W 117°09'0 0.0
2017-Nov-14 13:21N 32°42' W 117°09'0 0.0
2017-Nov-14 10:51N 32°42' W 117°09'0 0.0
2017-Nov-14 10:27N 32°42' W 117°09'0 0.0
2017-Nov-14 09:54N 32°42' W 117°09'0 0.0
2017-Nov-14 06:09N 32°42' W 117°09'0 0.0
2017-Nov-14 06:00N 32°42' W 117°09'0 0.0
2017-Nov-14 05:12N 32°42' W 117°09'0 0.0
2017-Nov-14 04:03N 32°42' W 117°09'0 0.0
2017-Nov-14 03:33N 32°42' W 117°09'0 0.1
2017-Nov-14 03:27N 32°42' W 117°09'0 0.0
2017-Nov-14 02:57N 32°42' W 117°09'0 0.0
2017-Nov-14 02:27N 32°42' W 117°09'0 0.0
2017-Nov-14 01:57N 32°42' W 117°09'0 0.0
2017-Nov-13 01:48N 32°42' W 117°09'0 0.0
2017-Nov-13 00:45N 32°42' W 117°09'0 0.1
2017-Nov-13 00:27N 32°42' W 117°09'2 3.5
2017-Nov-13 00:00N 32°43' W 117°11'4 8.0
2017-Nov-12 23:30N 32°40' W 117°14'510.3
2017-Nov-12 23:00N 32°35' W 117°16'611.4
2017-Nov-12 22:30N 32°30' W 117°19'611.5
2017-Nov-12 22:00N 32°25' W 117°23'510.5
2017-Nov-12 21:29N 32°19' W 117°24'611.5
2017-Nov-12 21:00N 32°14' W 117°22'611.9
2017-Nov-12 20:30N 32°08' W 117°19'611.9
2017-Nov-12 20:00N 32°03' W 117°17'611.1
2017-Nov-12 19:30N 31°58' W 117°15'510.7
2017-Nov-12 19:00N 31°53' W 117°13'510.9
2017-Nov-12 18:30N 31°47' W 117°11'510.8
2017-Nov-12 18:00N 31°42' W 117°09'3 5.8
2017-Nov-12 17:30N 31°39' W 117°08'612.9
2017-Nov-12 17:00N 31°33' W 117°05'815.8
2017-Nov-12 16:30N 31°26' W 117°02'815.6
2017-Nov-12 16:00N 31°18' W 116°60'815.8
2017-Nov-12 15:30N 31°11' W 116°57'917.0
2017-Nov-12 15:00N 31°03' W 116°53'918.0
2017-Nov-12 14:30N 30°54' W 116°50'918.2
2017-Nov-12 14:00N 30°46' W 116°47'918.1
2017-Nov-12 13:30N 30°37' W 116°44'918.0
2017-Nov-12 13:00N 30°29' W 116°41'918.0
2017-Nov-12 12:30N 30°20' W 116°37'6218.1
2017-Nov-12 09:05N 29°21' W 116°15'218.2
2017-Nov-12 08:58N 29°19' W 116°14'918.1
2017-Nov-12 08:27N 29°10' W 116°11'917.8
2017-Nov-12 07:55N 29°01' W 116°07'717.7
2017-Nov-12 07:30N 28°54' W 116°05'917.5
2017-Nov-12 07:00N 28°46' W 116°02'2217.5
2017-Nov-12 05:44N 28°25' W 115°54'3317.3
2017-Nov-12 03:51N 27°57' W 115°35'1417.7
2017-Nov-12 03:03N 27°45' W 115°25'117.7
2017-Nov-12 03:00N 27°45' W 115°25'917.5
2017-Nov-12 02:30N 27°38' W 115°19'917.5
2017-Nov-12 02:00N 27°30' W 115°14'917.4
2017-Nov-12 01:30N 27°23' W 115°08'917.4
2017-Nov-12 01:00N 27°16' W 115°02'2817.6
2017-Nov-11 23:24N 26°54' W 114°43'718.0
2017-Nov-11 23:00N 26°48' W 114°38'7818.2
2017-Nov-11 18:42N 25°44' W 113°48'417.9
2017-Nov-11 18:30N 25°42' W 113°45'  
Track history (hours):
 
Tides and Currents Weather Stations Pressure Air Temp Water Temp Dewpoint Dewpoint Depression Visibility Wind Speed Wind Dir Waves Ship Positions

Dole Caribbean

Last reported at 2017-Nov-15 17:19 UTC. Time now 2017-Nov-24 07:13 UTC.
Position N 28°33' W 115°57'.
Warning: this ship's position is 8 days out of date.

Length 190 m; draft 8.2 m.

Type: Ship. MMSI: 311000416.

Date/timePositionNaut miles runAvg speedWind from/ knotsBaromVisibWave heightAir tempDewpointWater temp
2017-Nov-15 17:19N 28°33' W 115°57'618.4
2017-Nov-15 17:00N 28°39' W 115°59'918.5
2017-Nov-15 16:29N 28°48' W 116°02'918.4
2017-Nov-15 16:00N 28°56' W 116°05'918.4
2017-Nov-15 15:31N 29°05' W 116°08'918.2
2017-Nov-15 15:01N 29°14' W 116°12'1417.9
2017-Nov-15 14:13N 29°27' W 116°17'518.0
2017-Nov-15 13:55N 29°32' W 116°19'818.1
2017-Nov-15 13:29N 29°39' W 116°22'3018.2
2017-Nov-15 11:51N 30°08' W 116°33'818.4
2017-Nov-15 11:27N 30°15' W 116°36'818.6
2017-Nov-15 11:00N 30°22' W 116°39'918.8
2017-Nov-15 10:30N 30°32' W 116°42'918.7
2017-Nov-15 10:01N 30°40' W 116°45'1018.6
2017-Nov-15 09:30N 30°49' W 116°48'2918.4
2017-Nov-15 07:57N 31°16' W 116°60'818.5
2017-Nov-15 07:31N 31°24' W 117°03'1019.0
2017-Nov-15 07:00N 31°33' W 117°06'918.8
2017-Nov-15 06:30N 31°42' W 117°09'1019.1
2017-Nov-15 06:00N 31°51' W 117°12'918.8
2017-Nov-15 05:30N 32°00' W 117°16'918.5
2017-Nov-15 05:00N 32°09' W 117°20'1218.7
2017-Nov-15 04:23N 32°20' W 117°24'511.9
2017-Nov-15 04:00N 32°24' W 117°23'1311.8
2017-Nov-15 02:53N 32°36' W 117°15'411.3
2017-Nov-15 02:30N 32°40' W 117°14'4 6.8
2017-Nov-15 01:57N 32°43' W 117°11'1 2.2
2017-Nov-15 01:24N 32°42' W 117°09'0 0.0
2017-Nov-15 01:00N 32°42' W 117°09'0 0.0
2017-Nov-14 22:42N 32°42' W 117°09'0 0.0
2017-Nov-14 21:45N 32°42' W 117°09'0 0.0
2017-Nov-14 19:24N 32°42' W 117°09'0 0.0
2017-Nov-14 18:33N 32°42' W 117°09'0 0.0
2017-Nov-14 18:27N 32°42' W 117°09'0 0.0
2017-Nov-14 17:54N 32°42' W 117°09'0 0.0
2017-Nov-14 14:03N 32°42' W 117°09'0 0.0
2017-Nov-14 13:45N 32°42' W 117°09'0 0.0
2017-Nov-14 13:21N 32°42' W 117°09'0 0.0
2017-Nov-14 10:51N 32°42' W 117°09'0 0.0
2017-Nov-14 10:27N 32°42' W 117°09'0 0.0
2017-Nov-14 09:54N 32°42' W 117°09'0 0.0
2017-Nov-14 06:09N 32°42' W 117°09'0 0.0
2017-Nov-14 06:00N 32°42' W 117°09'0 0.0
2017-Nov-14 05:12N 32°42' W 117°09'0 0.0
2017-Nov-14 04:03N 32°42' W 117°09'0 0.0
2017-Nov-14 03:33N 32°42' W 117°09'0 0.1
2017-Nov-14 03:27N 32°42' W 117°09'0 0.0
2017-Nov-14 02:57N 32°42' W 117°09'0 0.0
2017-Nov-14 02:27N 32°42' W 117°09'0 0.0
2017-Nov-14 01:57N 32°42' W 117°09'0 0.0
2017-Nov-13 01:48N 32°42' W 117°09'0 0.0
2017-Nov-13 00:45N 32°42' W 117°09'0 0.1
2017-Nov-13 00:27N 32°42' W 117°09'2 3.5
2017-Nov-13 00:00N 32°43' W 117°11'4 8.0
2017-Nov-12 23:30N 32°40' W 117°14'510.3
2017-Nov-12 23:00N 32°35' W 117°16'611.4
2017-Nov-12 22:30N 32°30' W 117°19'611.5
2017-Nov-12 22:00N 32°25' W 117°23'510.5
2017-Nov-12 21:29N 32°19' W 117°24'611.5
2017-Nov-12 21:00N 32°14' W 117°22'611.9
2017-Nov-12 20:30N 32°08' W 117°19'611.9
2017-Nov-12 20:00N 32°03' W 117°17'611.1
2017-Nov-12 19:30N 31°58' W 117°15'510.7
2017-Nov-12 19:00N 31°53' W 117°13'510.9
2017-Nov-12 18:30N 31°47' W 117°11'510.8
2017-Nov-12 18:00N 31°42' W 117°09'3 5.8
2017-Nov-12 17:30N 31°39' W 117°08'612.9
2017-Nov-12 17:00N 31°33' W 117°05'815.8
2017-Nov-12 16:30N 31°26' W 117°02'815.6
2017-Nov-12 16:00N 31°18' W 116°60'815.8
2017-Nov-12 15:30N 31°11' W 116°57'917.0
2017-Nov-12 15:00N 31°03' W 116°53'918.0
2017-Nov-12 14:30N 30°54' W 116°50'918.2
2017-Nov-12 14:00N 30°46' W 116°47'918.1
2017-Nov-12 13:30N 30°37' W 116°44'918.0
2017-Nov-12 13:00N 30°29' W 116°41'918.0
2017-Nov-12 12:30N 30°20' W 116°37'6218.1
2017-Nov-12 09:05N 29°21' W 116°15'218.2
2017-Nov-12 08:58N 29°19' W 116°14'918.1
2017-Nov-12 08:27N 29°10' W 116°11'917.8
2017-Nov-12 07:55N 29°01' W 116°07'717.7
2017-Nov-12 07:30N 28°54' W 116°05'917.5
2017-Nov-12 07:00N 28°46' W 116°02'2217.5
2017-Nov-12 05:44N 28°25' W 115°54'3317.3
2017-Nov-12 03:51N 27°57' W 115°35'1417.7
2017-Nov-12 03:03N 27°45' W 115°25'117.7
2017-Nov-12 03:00N 27°45' W 115°25'917.5
2017-Nov-12 02:30N 27°38' W 115°19'917.5
2017-Nov-12 02:00N 27°30' W 115°14'917.4
2017-Nov-12 01:30N 27°23' W 115°08'917.4
2017-Nov-12 01:00N 27°16' W 115°02'2817.6
2017-Nov-11 23:24N 26°54' W 114°43'718.0
2017-Nov-11 23:00N 26°48' W 114°38'7818.2
2017-Nov-11 18:42N 25°44' W 113°48'417.9
2017-Nov-11 18:30N 25°42' W 113°45'  

Dump ship's entire track history